sensor_id;sensor_type;location;lat;lon;timestamp;pressure;altitude;pressure_sealevel;temperature;humidity
72677;BME280;60755;51.374;10.662;2022-08-01T00:01:24;97121.84;;;17.94;86.72
72677;BME280;60755;51.374;10.662;2022-08-01T00:03:50;97123.22;;;17.92;86.74
72677;BME280;60755;51.374;10.662;2022-08-01T00:06:17;97125.59;;;17.93;86.65
72677;BME280;60755;51.374;10.662;2022-08-01T00:08:44;97125.38;;;17.89;87.09
72677;BME280;60755;51.374;10.662;2022-08-01T00:11:10;97123.38;;;17.76;87.70
72677;BME280;60755;51.374;10.662;2022-08-01T00:13:37;97122.81;;;17.79;87.04
72677;BME280;60755;51.374;10.662;2022-08-01T00:16:05;97116.25;;;17.72;88.23
72677;BME280;60755;51.374;10.662;2022-08-01T00:18:31;97124.19;;;17.77;87.93
72677;BME280;60755;51.374;10.662;2022-08-01T00:20:57;97122.75;;;17.84;87.95
72677;BME280;60755;51.374;10.662;2022-08-01T00:23:24;97122.75;;;17.84;87.98
72677;BME280;60755;51.374;10.662;2022-08-01T00:25:51;97120.72;;;18.00;87.66
72677;BME280;60755;51.374;10.662;2022-08-01T00:28:17;97117.22;;;18.05;86.84
72677;BME280;60755;51.374;10.662;2022-08-01T00:30:43;97111.06;;;18.04;87.58
72677;BME280;60755;51.374;10.662;2022-08-01T00:33:11;97113.31;;;17.97;87.25
72677;BME280;60755;51.374;10.662;2022-08-01T00:35:37;97111.66;;;18.01;87.84
72677;BME280;60755;51.374;10.662;2022-08-01T00:38:04;97102.09;;;18.19;86.86
72677;BME280;60755;51.374;10.662;2022-08-01T00:40:30;97099.44;;;18.19;86.57
72677;BME280;60755;51.374;10.662;2022-08-01T00:42:56;97094.56;;;18.07;87.22
72677;BME280;60755;51.374;10.662;2022-08-01T00:45:23;97096.78;;;18.00;87.78
72677;BME280;60755;51.374;10.662;2022-08-01T00:47:49;97099.78;;;17.94;88.23
72677;BME280;60755;51.374;10.662;2022-08-01T00:50:17;97094.91;;;18.01;87.44
72677;BME280;60755;51.374;10.662;2022-08-01T00:52:44;97102.94;;;17.96;87.70
72677;BME280;60755;51.374;10.662;2022-08-01T00:55:12;97089.16;;;17.94;88.43
72677;BME280;60755;51.374;10.662;2022-08-01T00:57:39;97090.28;;;17.87;88.41
72677;BME280;60755;51.374;10.662;2022-08-01T01:00:08;97082.25;;;17.93;87.60
72677;BME280;60755;51.374;10.662;2022-08-01T01:02:34;97092.38;;;17.91;87.91
72677;BME280;60755;51.374;10.662;2022-08-01T01:05:01;97084.41;;;17.91;87.96
72677;BME280;60755;51.374;10.662;2022-08-01T01:07:34;97088.25;;;17.79;88.43
72677;BME280;60755;51.374;10.662;2022-08-01T01:10:11;97087.13;;;17.85;87.97
72677;BME280;60755;51.374;10.662;2022-08-01T01:12:43;97086.63;;;17.83;88.80
72677;BME280;60755;51.374;10.662;2022-08-01T01:15:15;97090.91;;;17.79;88.77
72677;BME280;60755;51.374;10.662;2022-08-01T01:17:46;97100.13;;;17.87;88.46
72677;BME280;60755;51.374;10.662;2022-08-01T01:20:15;97094.25;;;17.90;88.70
72677;BME280;60755;51.374;10.662;2022-08-01T01:22:53;97083.81;;;17.94;88.09
72677;BME280;60755;51.374;10.662;2022-08-01T01:25:36;97082.09;;;18.03;87.46
72677;BME280;60755;51.374;10.662;2022-08-01T01:28:09;97083.78;;;17.99;88.08
72677;BME280;60755;51.374;10.662;2022-08-01T01:30:41;97095.69;;;18.01;88.61
72677;BME280;60755;51.374;10.662;2022-08-01T01:33:10;97098.66;;;18.00;87.88
72677;BME280;60755;51.374;10.662;2022-08-01T01:35:42;97090.63;;;18.05;88.27
72677;BME280;60755;51.374;10.662;2022-08-01T01:38:12;97100.03;;;17.97;88.53
72677;BME280;60755;51.374;10.662;2022-08-01T01:40:42;97098.38;;;18.20;87.66
72677;BME280;60755;51.374;10.662;2022-08-01T01:43:10;97094.78;;;18.11;88.10
72677;BME280;60755;51.374;10.662;2022-08-01T01:45:37;97088.44;;;18.07;88.12
72677;BME280;60755;51.374;10.662;2022-08-01T01:48:07;97091.16;;;18.02;88.17
72677;BME280;60755;51.374;10.662;2022-08-01T01:50:35;97094.56;;;18.07;88.07
72677;BME280;60755;51.374;10.662;2022-08-01T01:53:03;97092.19;;;18.06;87.53
72677;BME280;60755;51.374;10.662;2022-08-01T01:55:31;97093.97;;;18.10;87.45
72677;BME280;60755;51.374;10.662;2022-08-01T01:57:59;97100.75;;;18.22;87.54
72677;BME280;60755;51.374;10.662;2022-08-01T02:00:27;97100.81;;;18.16;86.74
72677;BME280;60755;51.374;10.662;2022-08-01T02:02:55;97098.50;;;18.10;87.27
72677;BME280;60755;51.374;10.662;2022-08-01T02:05:25;97095.84;;;18.10;87.89
72677;BME280;60755;51.374;10.662;2022-08-01T02:07:54;97092.19;;;18.06;87.66
72677;BME280;60755;51.374;10.662;2022-08-01T02:10:22;97102.69;;;18.16;87.20
72677;BME280;60755;51.374;10.662;2022-08-01T02:12:49;97097.88;;;18.18;87.31
72677;BME280;60755;51.374;10.662;2022-08-01T02:15:17;97107.38;;;18.05;88.08
72677;BME280;60755;51.374;10.662;2022-08-01T02:17:47;97100.09;;;18.11;87.62
72677;BME280;60755;51.374;10.662;2022-08-01T02:20:15;97104.41;;;18.07;88.28
72677;BME280;60755;51.374;10.662;2022-08-01T02:22:47;97103.97;;;18.00;88.32
72677;BME280;60755;51.374;10.662;2022-08-01T02:25:18;97102.59;;;18.02;88.59
72677;BME280;60755;51.374;10.662;2022-08-01T02:27:51;97107.91;;;18.02;88.20
72677;BME280;60755;51.374;10.662;2022-08-01T02:30:20;97100.81;;;17.98;88.84
72677;BME280;60755;51.374;10.662;2022-08-01T02:32:49;97104.56;;;17.97;89.40
72677;BME280;60755;51.374;10.662;2022-08-01T02:35:20;97104.06;;;18.13;88.11
72677;BME280;60755;51.374;10.662;2022-08-01T02:37:51;97094.47;;;18.12;88.24
72677;BME280;60755;51.374;10.662;2022-08-01T02:40:19;97105.19;;;18.07;88.90
72677;BME280;60755;51.374;10.662;2022-08-01T02:42:49;97091.97;;;18.02;88.49
72677;BME280;60755;51.374;10.662;2022-08-01T02:45:17;97100.81;;;17.98;89.39
72677;BME280;60755;51.374;10.662;2022-08-01T02:47:45;97100.06;;;17.92;88.94
72677;BME280;60755;51.374;10.662;2022-08-01T02:50:14;97091.75;;;17.99;89.59
72677;BME280;60755;51.374;10.662;2022-08-01T02:52:43;97101.94;;;17.92;89.35
72677;BME280;60755;51.374;10.662;2022-08-01T02:55:11;97097.69;;;17.91;89.04
72677;BME280;60755;51.374;10.662;2022-08-01T02:57:40;97103.06;;;17.85;89.00
72677;BME280;60755;51.374;10.662;2022-08-01T03:00:10;97101.00;;;17.82;89.67
72677;BME280;60755;51.374;10.662;2022-08-01T03:02:37;97108.97;;;17.82;89.99
72677;BME280;60755;51.374;10.662;2022-08-01T03:05:05;97103.19;;;17.75;89.52
72677;BME280;60755;51.374;10.662;2022-08-01T03:07:34;97111.06;;;17.85;89.40
72677;BME280;60755;51.374;10.662;2022-08-01T03:10:02;97102.34;;;17.80;89.74
72677;BME280;60755;51.374;10.662;2022-08-01T03:12:33;97107.59;;;17.85;89.91
72677;BME280;60755;51.374;10.662;2022-08-01T03:15:02;97099.22;;;17.97;88.77
72677;BME280;60755;51.374;10.662;2022-08-01T03:17:30;97107.59;;;17.85;88.91
72677;BME280;60755;51.374;10.662;2022-08-01T03:19:59;97105.53;;;17.82;89.30
72677;BME280;60755;51.374;10.662;2022-08-01T03:22:29;97099.91;;;17.83;89.78
72677;BME280;60755;51.374;10.662;2022-08-01T03:24:57;97105.22;;;17.83;89.77
72677;BME280;60755;51.374;10.662;2022-08-01T03:27:25;97112.72;;;17.81;89.19
72677;BME280;60755;51.374;10.662;2022-08-01T03:29:54;97103.94;;;17.81;89.45
72677;BME280;60755;51.374;10.662;2022-08-01T03:32:22;97113.53;;;17.77;89.24
72677;BME280;60755;51.374;10.662;2022-08-01T03:34:49;97106.94;;;17.74;89.79
72677;BME280;60755;51.374;10.662;2022-08-01T03:37:26;97108.28;;;17.72;89.63
72677;BME280;60755;51.374;10.662;2022-08-01T03:39:55;97112.56;;;17.68;90.13
72677;BME280;60755;51.374;10.662;2022-08-01T03:42:27;97114.72;;;17.66;90.31
72677;BME280;60755;51.374;10.662;2022-08-01T03:44:58;97119.16;;;17.75;89.64
72677;BME280;60755;51.374;10.662;2022-08-01T03:47:31;97117.00;;;17.77;88.61
72677;BME280;60755;51.374;10.662;2022-08-01T03:50:00;97111.22;;;17.70;90.16
72677;BME280;60755;51.374;10.662;2022-08-01T03:52:29;97116.19;;;17.77;89.27
72677;BME280;60755;51.374;10.662;2022-08-01T03:54:58;97112.47;;;17.78;89.47
72677;BME280;60755;51.374;10.662;2022-08-01T03:57:28;97113.84;;;17.75;89.62
72677;BME280;60755;51.374;10.662;2022-08-01T03:59:57;97121.31;;;17.73;89.70
72677;BME280;60755;51.374;10.662;2022-08-01T04:02:25;97125.56;;;17.69;89.91
72677;BME280;60755;51.374;10.662;2022-08-01T04:04:52;97134.41;;;17.65;89.82
72677;BME280;60755;51.374;10.662;2022-08-01T04:07:23;97122.94;;;17.64;89.08
72677;BME280;60755;51.374;10.662;2022-08-01T04:09:50;97137.22;;;17.49;89.06
72677;BME280;60755;51.374;10.662;2022-08-01T04:12:16;97128.44;;;17.49;89.56
72677;BME280;60755;51.374;10.662;2022-08-01T04:14:43;97139.09;;;17.49;89.68
72677;BME280;60755;51.374;10.662;2022-08-01T04:17:11;97138.88;;;17.40;90.30
72677;BME280;60755;51.374;10.662;2022-08-01T04:19:37;97145.53;;;17.38;89.87
72677;BME280;60755;51.374;10.662;2022-08-01T04:22:04;97138.34;;;17.43;89.29
72677;BME280;60755;51.374;10.662;2022-08-01T04:24:32;97146.59;;;17.42;89.43
72677;BME280;60755;51.374;10.662;2022-08-01T04:27:01;97147.72;;;17.30;90.15
72677;BME280;60755;51.374;10.662;2022-08-01T04:29:29;97150.97;;;17.27;90.20
72677;BME280;60755;51.374;10.662;2022-08-01T04:31:56;97146.44;;;17.28;89.91
72677;BME280;60755;51.374;10.662;2022-08-01T04:34:28;97143.69;;;17.38;89.43
72677;BME280;60755;51.374;10.662;2022-08-01T04:36:57;97150.22;;;17.51;89.41
72677;BME280;60755;51.374;10.662;2022-08-01T04:39:26;97151.41;;;17.63;89.00
72677;BME280;60755;51.374;10.662;2022-08-01T04:41:55;97146.75;;;17.79;88.14
72677;BME280;60755;51.374;10.662;2022-08-01T04:44:23;97152.19;;;17.93;87.33
72677;BME280;60755;51.374;10.662;2022-08-01T04:46:50;97156.88;;;18.20;85.74
72677;BME280;60755;51.374;10.662;2022-08-01T04:49:19;97154.31;;;18.15;86.04
72677;BME280;60755;51.374;10.662;2022-08-01T04:51:51;97156.19;;;18.33;85.14
72677;BME280;60755;51.374;10.662;2022-08-01T04:54:22;97159.09;;;18.37;85.16
72677;BME280;60755;51.374;10.662;2022-08-01T04:56:49;97158.56;;;18.35;85.41
72677;BME280;60755;51.374;10.662;2022-08-01T04:59:15;97164.25;;;18.28;85.16
72677;BME280;60755;51.374;10.662;2022-08-01T05:01:59;97163.03;;;18.39;85.83
72677;BME280;60755;51.374;10.662;2022-08-01T05:04:26;97162.25;;;18.58;84.85
72677;BME280;60755;51.374;10.662;2022-08-01T05:06:53;97160.03;;;19.03;82.71
72677;BME280;60755;51.374;10.662;2022-08-01T05:09:20;97165.50;;;19.11;82.08
72677;BME280;60755;51.374;10.662;2022-08-01T05:11:47;97169.84;;;19.21;81.93
72677;BME280;60755;51.374;10.662;2022-08-01T05:14:13;97170.88;;;19.85;79.25
72677;BME280;60755;51.374;10.662;2022-08-01T05:16:44;97164.25;;;20.10;79.08
72677;BME280;60755;51.374;10.662;2022-08-01T05:19:10;97168.19;;;20.54;75.11
72677;BME280;60755;51.374;10.662;2022-08-01T05:21:37;97171.22;;;20.97;75.02
72677;BME280;60755;51.374;10.662;2022-08-01T05:24:05;97163.06;;;21.78;72.67
72677;BME280;60755;51.374;10.662;2022-08-01T05:26:32;97173.09;;;21.72;70.98
72677;BME280;60755;51.374;10.662;2022-08-01T05:28:58;97174.56;;;21.03;73.61
72677;BME280;60755;51.374;10.662;2022-08-01T05:31:25;97177.69;;;20.19;76.43
72677;BME280;60755;51.374;10.662;2022-08-01T05:33:51;97172.56;;;19.95;77.40
72677;BME280;60755;51.374;10.662;2022-08-01T05:36:17;97180.25;;;19.36;80.08
72677;BME280;60755;51.374;10.662;2022-08-01T05:38:44;97181.19;;;19.13;79.79
72677;BME280;60755;51.374;10.662;2022-08-01T05:41:11;97189.72;;;19.61;78.92
72677;BME280;60755;51.374;10.662;2022-08-01T05:43:38;97185.78;;;19.72;77.66
72677;BME280;60755;51.374;10.662;2022-08-01T05:46:04;97186.56;;;19.73;77.84
72677;BME280;60755;51.374;10.662;2022-08-01T05:48:31;97186.19;;;19.66;77.75
72677;BME280;60755;51.374;10.662;2022-08-01T05:50:57;97189.84;;;19.70;77.52
72677;BME280;60755;51.374;10.662;2022-08-01T05:53:23;97174.94;;;20.24;75.32
72677;BME280;60755;51.374;10.662;2022-08-01T05:55:50;97177.16;;;20.94;73.39
72677;BME280;60755;51.374;10.662;2022-08-01T05:58:18;97168.75;;;22.33;68.34
72677;BME280;60755;51.374;10.662;2022-08-01T06:00:44;97180.00;;;21.34;70.64
72677;BME280;60755;51.374;10.662;2022-08-01T06:03:10;97178.63;;;21.22;71.04
72677;BME280;60755;51.374;10.662;2022-08-01T06:05:37;97168.38;;;20.57;72.57
72677;BME280;60755;51.374;10.662;2022-08-01T06:08:03;97177.88;;;21.08;71.39
72677;BME280;60755;51.374;10.662;2022-08-01T06:10:30;97182.75;;;21.06;71.46
72677;BME280;60755;51.374;10.662;2022-08-01T06:12:56;97189.09;;;20.74;73.26
72677;BME280;60755;51.374;10.662;2022-08-01T06:15:24;97195.88;;;20.03;76.84
72677;BME280;60755;51.374;10.662;2022-08-01T06:17:50;97200.56;;;19.65;78.18
72677;BME280;60755;51.374;10.662;2022-08-01T06:20:17;97189.47;;;19.44;78.42
72677;BME280;60755;51.374;10.662;2022-08-01T06:22:43;97191.22;;;19.35;79.01
72677;BME280;60755;51.374;10.662;2022-08-01T06:25:10;97193.25;;;19.56;77.94
72677;BME280;60755;51.374;10.662;2022-08-01T06:27:37;97200.44;;;20.02;77.05
72677;BME280;60755;51.374;10.662;2022-08-01T06:30:04;97209.81;;;20.27;75.39
72677;BME280;60755;51.374;10.662;2022-08-01T06:32:33;97203.69;;;21.89;71.73
72677;BME280;60755;51.374;10.662;2022-08-01T06:35:00;97222.78;;;21.34;70.08
72677;BME280;60755;51.374;10.662;2022-08-01T06:37:28;97212.66;;;21.53;70.02
72677;BME280;60755;51.374;10.662;2022-08-01T06:39:55;97216.88;;;21.09;71.82
72677;BME280;60755;51.374;10.662;2022-08-01T06:42:21;97212.66;;;21.31;70.44
72677;BME280;60755;51.374;10.662;2022-08-01T06:44:49;97215.66;;;20.57;73.28
72677;BME280;60755;51.374;10.662;2022-08-01T06:47:15;97215.09;;;20.46;72.48
72677;BME280;60755;51.374;10.662;2022-08-01T06:49:43;97216.56;;;19.65;76.53
72677;BME280;60755;51.374;10.662;2022-08-01T06:52:09;97221.78;;;20.02;76.09
72677;BME280;60755;51.374;10.662;2022-08-01T06:54:36;97219.03;;;20.21;74.92
72677;BME280;60755;51.374;10.662;2022-08-01T06:57:04;97221.88;;;20.11;76.12
72677;BME280;60755;51.374;10.662;2022-08-01T06:59:31;97228.50;;;20.00;75.68
72677;BME280;60755;51.374;10.662;2022-08-01T07:01:57;97218.03;;;20.45;73.34
72677;BME280;60755;51.374;10.662;2022-08-01T07:04:23;97218.72;;;21.22;70.94
72677;BME280;60755;51.374;10.662;2022-08-01T07:06:51;97220.06;;;21.11;71.97
72677;BME280;60755;51.374;10.662;2022-08-01T07:09:17;97221.84;;;20.66;72.27
72677;BME280;60755;51.374;10.662;2022-08-01T07:11:44;97222.25;;;20.04;74.24
72677;BME280;60755;51.374;10.662;2022-08-01T07:14:10;97231.16;;;20.27;73.98
72677;BME280;60755;51.374;10.662;2022-08-01T07:16:37;97222.22;;;21.09;70.82
72677;BME280;60755;51.374;10.662;2022-08-01T07:19:03;97215.16;;;22.77;64.77
72677;BME280;60755;51.374;10.662;2022-08-01T07:21:30;97220.41;;;24.66;58.01
72677;BME280;60755;51.374;10.662;2022-08-01T07:23:57;97214.56;;;26.30;53.47
72677;BME280;60755;51.374;10.662;2022-08-01T07:26:24;97216.03;;;27.16;50.61
72677;BME280;60755;51.374;10.662;2022-08-01T07:28:51;97218.50;;;24.67;55.68
72677;BME280;60755;51.374;10.662;2022-08-01T07:31:18;97217.34;;;22.58;61.61
72677;BME280;60755;51.374;10.662;2022-08-01T07:33:45;97219.13;;;21.83;64.02
72677;BME280;60755;51.374;10.662;2022-08-01T07:36:11;97226.03;;;20.58;69.00
72677;BME280;60755;51.374;10.662;2022-08-01T07:38:38;97226.50;;;21.33;67.81
72677;BME280;60755;51.374;10.662;2022-08-01T07:41:05;97222.63;;;21.61;63.93
72677;BME280;60755;51.374;10.662;2022-08-01T07:43:32;97236.56;;;21.13;66.42
72677;BME280;60755;51.374;10.662;2022-08-01T07:46:00;97244.81;;;21.62;65.11
72677;BME280;60755;51.374;10.662;2022-08-01T07:48:27;97250.69;;;22.34;62.95
72677;BME280;60755;51.374;10.662;2022-08-01T07:50:54;97252.94;;;22.50;62.47
72677;BME280;60755;51.374;10.662;2022-08-01T07:53:20;97247.66;;;23.62;59.52
72677;BME280;60755;51.374;10.662;2022-08-01T07:55:47;97247.59;;;22.67;62.16
72677;BME280;60755;51.374;10.662;2022-08-01T07:58:15;97253.97;;;22.23;63.61
72677;BME280;60755;51.374;10.662;2022-08-01T08:00:41;97248.13;;;22.29;64.33
72677;BME280;60755;51.374;10.662;2022-08-01T08:03:08;97245.53;;;22.47;65.58
72677;BME280;60755;51.374;10.662;2022-08-01T08:05:34;97247.25;;;22.43;63.50
72677;BME280;60755;51.374;10.662;2022-08-01T08:08:01;97246.88;;;21.96;65.23
72677;BME280;60755;51.374;10.662;2022-08-01T08:10:27;97248.38;;;22.11;64.16
72677;BME280;60755;51.374;10.662;2022-08-01T08:12:54;97251.91;;;22.28;64.09
72677;BME280;60755;51.374;10.662;2022-08-01T08:15:21;97248.59;;;22.23;64.95
72677;BME280;60755;51.374;10.662;2022-08-01T08:17:48;97256.38;;;22.42;64.22
72677;BME280;60755;51.374;10.662;2022-08-01T08:20:14;97258.59;;;21.77;65.55
72677;BME280;60755;51.374;10.662;2022-08-01T08:22:41;97254.16;;;22.35;64.20
72677;BME280;60755;51.374;10.662;2022-08-01T08:25:08;97250.66;;;22.26;63.87
72677;BME280;60755;51.374;10.662;2022-08-01T08:27:35;97246.09;;;22.26;64.42
72677;BME280;60755;51.374;10.662;2022-08-01T08:30:02;97252.53;;;22.25;64.36
72677;BME280;60755;51.374;10.662;2022-08-01T08:32:29;97254.59;;;21.66;66.24
72677;BME280;60755;51.374;10.662;2022-08-01T08:34:56;97258.59;;;21.33;68.72
72677;BME280;60755;51.374;10.662;2022-08-01T08:37:22;97262.94;;;21.42;68.27
72677;BME280;60755;51.374;10.662;2022-08-01T08:39:48;97266.88;;;21.45;68.21
72677;BME280;60755;51.374;10.662;2022-08-01T08:42:15;97270.25;;;21.01;69.29
72677;BME280;60755;51.374;10.662;2022-08-01T08:44:42;97273.84;;;20.96;69.28
72677;BME280;60755;51.374;10.662;2022-08-01T08:47:11;97272.78;;;20.42;72.74
72677;BME280;60755;51.374;10.662;2022-08-01T08:49:42;97285.47;;;20.64;71.50
72677;BME280;60755;51.374;10.662;2022-08-01T08:52:10;97283.47;;;20.42;71.91
72677;BME280;60755;51.374;10.662;2022-08-01T08:54:38;97294.84;;;20.34;72.20
72677;BME280;60755;51.374;10.662;2022-08-01T08:57:07;97280.31;;;20.40;72.87
72677;BME280;60755;51.374;10.662;2022-08-01T08:59:36;97296.31;;;20.40;72.08
72677;BME280;60755;51.374;10.662;2022-08-01T09:02:03;97299.25;;;21.07;70.76
72677;BME280;60755;51.374;10.662;2022-08-01T09:04:31;97298.47;;;21.07;68.82
72677;BME280;60755;51.374;10.662;2022-08-01T09:06:58;97290.91;;;21.59;68.25
72677;BME280;60755;51.374;10.662;2022-08-01T09:09:25;97301.09;;;22.32;65.39
72677;BME280;60755;51.374;10.662;2022-08-01T09:11:54;97292.34;;;22.58;64.80
72677;BME280;60755;51.374;10.662;2022-08-01T09:14:20;97291.72;;;23.18;63.59
72677;BME280;60755;51.374;10.662;2022-08-01T09:16:59;97296.44;;;23.30;62.45
72677;BME280;60755;51.374;10.662;2022-08-01T09:19:34;97296.50;;;22.81;63.33
72677;BME280;60755;51.374;10.662;2022-08-01T09:22:04;97290.91;;;22.12;64.50
72677;BME280;60755;51.374;10.662;2022-08-01T09:24:33;97291.97;;;21.80;65.51
72677;BME280;60755;51.374;10.662;2022-08-01T09:27:02;97302.19;;;21.19;67.52
72677;BME280;60755;51.374;10.662;2022-08-01T09:29:40;97309.19;;;20.79;69.98
72677;BME280;60755;51.374;10.662;2022-08-01T09:32:07;97305.84;;;20.74;70.43
72677;BME280;60755;51.374;10.662;2022-08-01T09:34:33;97303.47;;;20.58;70.37
72677;BME280;60755;51.374;10.662;2022-08-01T09:37:01;97316.72;;;20.63;70.74
72677;BME280;60755;51.374;10.662;2022-08-01T09:39:31;97315.75;;;20.46;71.44
72677;BME280;60755;51.374;10.662;2022-08-01T09:42:01;97331.53;;;19.96;72.97
72677;BME280;60755;51.374;10.662;2022-08-01T09:44:38;97339.16;;;19.32;76.76
72677;BME280;60755;51.374;10.662;2022-08-01T09:47:05;97339.09;;;19.37;77.18
72677;BME280;60755;51.374;10.662;2022-08-01T09:49:33;97342.41;;;19.29;77.06
72677;BME280;60755;51.374;10.662;2022-08-01T09:52:10;97339.16;;;19.51;76.40
72677;BME280;60755;51.374;10.662;2022-08-01T09:54:39;97330.56;;;19.73;74.08
72677;BME280;60755;51.374;10.662;2022-08-01T09:57:12;97340.50;;;19.86;73.10
72677;BME280;60755;51.374;10.662;2022-08-01T09:59:40;97337.00;;;20.04;71.55
72677;BME280;60755;51.374;10.662;2022-08-01T10:02:08;97332.69;;;20.22;70.91
72677;BME280;60755;51.374;10.662;2022-08-01T10:04:36;97345.19;;;20.68;70.38
72677;BME280;60755;51.374;10.662;2022-08-01T10:07:04;97347.59;;;20.56;68.92
72677;BME280;60755;51.374;10.662;2022-08-01T10:09:32;97340.44;;;20.51;69.76
72677;BME280;60755;51.374;10.662;2022-08-01T10:12:02;97341.38;;;21.24;67.77
72677;BME280;60755;51.374;10.662;2022-08-01T10:14:30;97342.56;;;21.90;66.10
72677;BME280;60755;51.374;10.662;2022-08-01T10:16:58;97332.19;;;21.97;65.50
72677;BME280;60755;51.374;10.662;2022-08-01T10:19:26;97333.66;;;22.26;64.22
72677;BME280;60755;51.374;10.662;2022-08-01T10:21:54;97332.38;;;22.54;62.83
72677;BME280;60755;51.374;10.662;2022-08-01T10:24:21;97337.78;;;22.72;62.43
72677;BME280;60755;51.374;10.662;2022-08-01T10:26:51;97328.81;;;22.76;63.11
72677;BME280;60755;51.374;10.662;2022-08-01T10:29:22;97323.78;;;22.83;62.80
72677;BME280;60755;51.374;10.662;2022-08-01T10:31:49;97327.50;;;23.39;60.98
72677;BME280;60755;51.374;10.662;2022-08-01T10:34:17;97323.72;;;23.32;61.06
72677;BME280;60755;51.374;10.662;2022-08-01T10:36:45;97323.44;;;23.68;60.24
72677;BME280;60755;51.374;10.662;2022-08-01T10:39:12;97330.66;;;23.41;60.38
72677;BME280;60755;51.374;10.662;2022-08-01T10:41:40;97323.72;;;23.06;60.96
72677;BME280;60755;51.374;10.662;2022-08-01T10:44:07;97317.25;;;23.85;58.36
72677;BME280;60755;51.374;10.662;2022-08-01T10:46:38;97318.41;;;24.69;56.72
72677;BME280;60755;51.374;10.662;2022-08-01T10:49:09;97315.63;;;24.10;58.20
72677;BME280;60755;51.374;10.662;2022-08-01T10:51:37;97317.75;;;23.78;58.03
72677;BME280;60755;51.374;10.662;2022-08-01T10:54:05;97320.09;;;23.36;61.12
72677;BME280;60755;51.374;10.662;2022-08-01T10:56:38;97322.31;;;23.52;59.98
72677;BME280;60755;51.374;10.662;2022-08-01T10:59:05;97316.47;;;24.48;59.21
72677;BME280;60755;51.374;10.662;2022-08-01T11:01:32;97302.88;;;23.89;57.14
72677;BME280;60755;51.374;10.662;2022-08-01T11:04:06;97311.72;;;23.98;56.89
72677;BME280;60755;51.374;10.662;2022-08-01T11:06:49;97309.53;;;24.30;56.78
72677;BME280;60755;51.374;10.662;2022-08-01T11:09:23;97301.88;;;24.58;55.90
72677;BME280;60755;51.374;10.662;2022-08-01T11:11:58;97310.63;;;24.46;56.64
72677;BME280;60755;51.374;10.662;2022-08-01T11:14:25;97305.00;;;24.22;56.99
72677;BME280;60755;51.374;10.662;2022-08-01T11:16:52;97313.47;;;23.86;57.36
72677;BME280;60755;51.374;10.662;2022-08-01T11:19:20;97316.53;;;24.14;56.73
72677;BME280;60755;51.374;10.662;2022-08-01T11:21:59;97309.31;;;24.06;56.73
72677;BME280;60755;51.374;10.662;2022-08-01T11:24:56;97316.00;;;23.82;57.66
72677;BME280;60755;51.374;10.662;2022-08-01T11:27:25;97310.53;;;24.25;56.21
72677;BME280;60755;51.374;10.662;2022-08-01T11:30:23;97307.78;;;23.87;57.70
72677;BME280;60755;51.374;10.662;2022-08-01T11:32:52;97310.50;;;23.27;58.24
72677;BME280;60755;51.374;10.662;2022-08-01T11:35:21;97314.75;;;23.28;57.45
72677;BME280;60755;51.374;10.662;2022-08-01T11:37:49;97313.97;;;23.27;58.78
72677;BME280;60755;51.374;10.662;2022-08-01T11:40:19;97317.22;;;23.07;58.94
72677;BME280;60755;51.374;10.662;2022-08-01T11:42:45;97317.22;;;22.98;59.15
72677;BME280;60755;51.374;10.662;2022-08-01T11:45:12;97306.84;;;23.23;58.59
72677;BME280;60755;51.374;10.662;2022-08-01T11:47:46;97315.94;;;22.87;59.94
72677;BME280;60755;51.374;10.662;2022-08-01T11:50:34;97321.00;;;22.88;60.03
72677;BME280;60755;51.374;10.662;2022-08-01T11:53:03;97313.38;;;22.33;60.88
72677;BME280;60755;51.374;10.662;2022-08-01T11:55:31;97310.00;;;22.59;60.14
72677;BME280;60755;51.374;10.662;2022-08-01T11:58:00;97312.25;;;22.74;60.99
72677;BME280;60755;51.374;10.662;2022-08-01T12:00:27;97312.59;;;22.81;59.58
72677;BME280;60755;51.374;10.662;2022-08-01T12:03:00;97312.56;;;22.64;61.37
72677;BME280;60755;51.374;10.662;2022-08-01T12:05:28;97314.22;;;23.00;60.26
72677;BME280;60755;51.374;10.662;2022-08-01T12:07:56;97315.69;;;22.66;59.75
72677;BME280;60755;51.374;10.662;2022-08-01T12:10:25;97314.78;;;22.31;61.43
72677;BME280;60755;51.374;10.662;2022-08-01T12:12:53;97316.19;;;22.28;61.91
72677;BME280;60755;51.374;10.662;2022-08-01T12:15:21;97322.50;;;22.32;61.87
72677;BME280;60755;51.374;10.662;2022-08-01T12:17:50;97320.75;;;22.76;60.77
72677;BME280;60755;51.374;10.662;2022-08-01T12:20:20;97322.13;;;23.57;60.24
72677;BME280;60755;51.374;10.662;2022-08-01T12:22:47;97316.31;;;23.72;57.25
72677;BME280;60755;51.374;10.662;2022-08-01T12:25:16;97316.47;;;23.84;58.13
72677;BME280;60755;51.374;10.662;2022-08-01T12:27:44;97317.38;;;23.97;56.69
72677;BME280;60755;51.374;10.662;2022-08-01T12:30:12;97322.31;;;23.78;56.68
72677;BME280;60755;51.374;10.662;2022-08-01T12:32:41;97322.47;;;23.72;57.58
72677;BME280;60755;51.374;10.662;2022-08-01T12:35:09;97316.91;;;23.95;55.44
72677;BME280;60755;51.374;10.662;2022-08-01T12:37:36;97315.63;;;24.10;56.26
72677;BME280;60755;51.374;10.662;2022-08-01T12:40:10;97315.72;;;23.66;57.78
72677;BME280;60755;51.374;10.662;2022-08-01T12:42:38;97311.13;;;23.67;58.32
72677;BME280;60755;51.374;10.662;2022-08-01T12:45:08;97317.28;;;23.59;58.90
72677;BME280;60755;51.374;10.662;2022-08-01T12:47:35;97331.09;;;23.00;60.43
72677;BME280;60755;51.374;10.662;2022-08-01T12:50:03;97323.91;;;23.18;59.82
72677;BME280;60755;51.374;10.662;2022-08-01T12:52:31;97330.66;;;23.24;59.36
72677;BME280;60755;51.374;10.662;2022-08-01T12:55:09;97330.50;;;23.12;60.01
72677;BME280;60755;51.374;10.662;2022-08-01T12:57:40;97336.47;;;23.09;60.27